Due to severe server failure at the provider, not all demo sites are operational. Will take some days to rebuilt everything.

Demonstration site - Click on the  for more information

This is an optional block. Switch it on/off in your settings-file: $SITE['bannerTop'] = false; or $SITE['bannerBottom'] = false;

You can display ads, any other important text or photo’s using text / html or PHP code.

You can place one or more at the top and or bottom and it can all be different for content / size .



Visit our other weather sites:

Template documentation
and downloads

And another site



Nearby METAR Reports

   
EBAW - Antwerp
Updated: 22-04-2019 18:20
Clear  
Clear  
   Wind: East 20.4 km/h
Wind: East 20.4 km/h
Temperature: 24°C
Dew Point: 4°C
Humidity: 27%
Barometer: 1003 hPa
Visibility: More than 10 km
Cloud details: Clear ft
EBAW 221620Z 10011KT 060V120 CAVOK 24/04 Q1003 NOSIG
EBLG - Liège
Updated: 22-04-2019 18:20
Clear  
Clear  
   Wind: East 13 km/h
Wind: East 13 km/h
Temperature: 24°C
Dew Point: 0°C
Humidity: 21%
Barometer: 1003 hPa
Visibility: More than 10 km
Cloud details: Clear ft
EBLG 221620Z 10007KT 070V140 CAVOK 24/M00 Q1003 NOSIG
EBCV - Mons/Bergen
Updated: 22-04-2019 18:25
Clear  
Clear  
   Wind: East 11.1 km/h
Wind: East 11.1 km/h
Temperature: 24°C
Dew Point: 5°C
Humidity: 29%
Barometer: 1003 hPa
Clouds: Clear
Visibility: More than 10 km
Cloud details: Clear ft
EBCV 221625Z AUTO 08006KT 9999 NCD 24/05 Q1003 BLU
EHBK - Maastricht
Updated: 22-04-2019 18:25
Clear  
Clear  
   Wind: East 22.2 km/h
Wind: East 22.2 km/h
Temperature: 24°C
Dew Point: 1°C
Humidity: 22%
Barometer: 1004 hPa
Clouds: Clear
Visibility: More than 10 km
Cloud details: Clear ft
EHBK 221625Z AUTO 08012KT 060V120 9999 NCD 24/01 Q1004 NOSIG
ELLX - Luxemburg
Updated: 22-04-2019 18:20
Clear  
Clear  
   Wind: ENE 18.5 km/h
Wind: ENE 18.5 km/h
Temperature: 23°C
Dew Point: 2°C
Humidity: 25%
Barometer: 1004 hPa
Visibility: More than 10 km
Cloud details: Clear ft
ELLX 221620Z 07010KT 040V130 CAVOK 23/02 Q1004 NOSIG
EBOS - Oostende
Updated: 22-04-2019 18:20
Clear  
Clear  
   Wind: East 13 km/h
Wind: East 13 km/h
Temperature: 24°C
Dew Point: 3°C
Humidity: 25%
Barometer: 1003 hPa
Visibility: More than 10 km
Cloud details: Clear ft
EBOS 221620Z 10007KT CAVOK 24/03 Q1003 NOSIG

Script developed by  Saratoga-weather.org Adapted for the template by  Weerstation Leuven

This is an optional block. Switch it on/off in your settings-file: $SITE['bannerTop'] = false; or $SITE['bannerBottom'] = false;

You can display ads, any other important text or photo’s using text / html or PHP code.

You can place one or more at the top and or bottom and it can all be different for content / size .